Time;durP1;ratioP1;P1;durP2;ratioP2;P2;SDS_P1;SDS_P2;PMS_P1;PMS_P2;Temp;Humidity;BMP_temperature;BMP_pressure;BME280_temperature;BME280_humidity;BME280_pressure;Samples;Min_cycle;Max_cycle;Signal;HPM_P1;HPM_P2
2022/01/20 00:00:20;;;;;;;14.10;6.93;;;;;;;;;;5031220;28;20034;-64
2022/01/20 00:02:59;;;;;;;13.27;6.82;;;;;;;;;;5030888;28;20030;-63
2022/01/20 00:27:08;;;;;;;11.65;6.43;;;;;;;;;;5032658;28;20048;-65
2022/01/20 00:30:01;;;;;;;11.77;5.82;;;;;;;;;;5032544;28;20022;-66
2022/01/20 00:32:25;;;;;;;10.95;5.85;;;;;;;;;;5032486;28;20033;-65
2022/01/20 00:37:25;;;;;;;15.98;6.72;;;;;;;;;;5031759;28;20084;-65
2022/01/20 00:39:51;;;;;;;11.00;6.25;;;;;;;;;;5035003;28;20140;-65
2022/01/20 00:42:17;;;;;;;10.63;5.97;;;;;;;;;;5032206;28;20529;-64
2022/01/20 00:44:44;;;;;;;10.32;5.78;;;;;;;;;;5032670;28;20028;-65
2022/01/20 00:47:10;;;;;;;14.20;6.72;;;;;;;;;;5031980;28;20028;-65
2022/01/20 00:49:36;;;;;;;13.88;6.53;;;;;;;;;;5028650;28;20037;-65
2022/01/20 00:52:03;;;;;;;12.57;6.55;;;;;;;;;;5037944;28;20026;-64
2022/01/20 00:54:29;;;;;;;14.68;6.75;;;;;;;;;;5038885;28;20108;-64
2022/01/20 00:56:55;;;;;;;13.05;6.68;;;;;;;;;;5039207;28;20503;-66
2022/01/20 00:59:21;;;;;;;13.07;6.28;;;;;;;;;;5038715;28;20527;-65
2022/01/20 01:01:47;;;;;;;14.40;7.03;;;;;;;;;;5035990;28;20056;-66
2022/01/20 01:04:13;;;;;;;14.43;6.78;;;;;;;;;;5040068;28;20029;-65
2022/01/20 01:09:14;;;;;;;14.43;6.63;;;;;;;;;;5039218;28;20038;-66
2022/01/20 01:11:43;;;;;;;13.20;6.22;;;;;;;;;;5039089;28;20026;-66
2022/01/20 01:14:09;;;;;;;12.48;6.57;;;;;;;;;;5038780;28;20020;-65
2022/01/20 01:24:41;;;;;;;10.52;5.93;;;;;;;;;;5040083;28;20048;-65
2022/01/20 01:27:08;;;;;;;11.63;5.80;;;;;;;;;;5038419;28;20025;-65
2022/01/20 01:32:12;;;;;;;8.88;5.13;;;;;;;;;;5038934;28;20021;-66
2022/01/20 01:34:41;;;;;;;10.13;5.30;;;;;;;;;;5034856;28;20083;-66
2022/01/20 01:37:24;;;;;;;12.10;5.85;;;;;;;;;;5040746;28;20038;-66
2022/01/20 01:39:50;;;;;;;9.68;5.30;;;;;;;;;;5040687;28;20463;-66
2022/01/20 01:42:23;;;;;;;11.57;5.80;;;;;;;;;;5038624;28;20025;-66
2022/01/20 01:44:49;;;;;;;11.77;5.30;;;;;;;;;;5038730;28;20468;-65
2022/01/20 01:47:15;;;;;;;13.48;6.15;;;;;;;;;;5038929;28;20107;-65
2022/01/20 01:49:41;;;;;;;12.73;5.40;;;;;;;;;;5034592;28;20037;-66
2022/01/20 01:52:07;;;;;;;13.45;5.70;;;;;;;;;;5040956;28;20033;-66
2022/01/20 01:54:33;;;;;;;10.82;6.13;;;;;;;;;;5040682;28;20083;-66
2022/01/20 01:57:02;;;;;;;9.32;4.95;;;;;;;;;;5037161;28;20025;-66
2022/01/20 01:59:29;;;;;;;8.70;3.53;;;;;;;;;;5038380;28;20036;-66
2022/01/20 02:01:55;;;;;;;12.18;5.10;;;;;;;;;;5036065;28;20437;-66
2022/01/20 02:04:22;;;;;;;8.88;4.55;;;;;;;;;;5035312;28;20031;-66
2022/01/20 02:07:29;;;;;;;10.77;5.22;;;;;;;;;;5037101;28;20037;-66
2022/01/20 02:20:43;;;;;;;11.02;4.85;;;;;;;;;;5035475;28;20033;-66
2022/01/20 02:23:09;;;;;;;12.57;4.75;;;;;;;;;;5034553;28;20025;-66
2022/01/20 02:25:36;;;;;;;8.32;4.30;;;;;;;;;;5031129;28;20030;-66
2022/01/20 02:28:04;;;;;;;9.18;5.03;;;;;;;;;;5038555;28;20025;-66
2022/01/20 02:30:30;;;;;;;8.52;4.38;;;;;;;;;;5034664;28;20022;-66
2022/01/20 02:33:00;;;;;;;10.15;4.82;;;;;;;;;;5034675;28;20033;-66
2022/01/20 02:35:28;;;;;;;9.77;5.05;;;;;;;;;;5035154;28;20115;-65
2022/01/20 02:38:12;;;;;;;11.38;4.93;;;;;;;;;;5044620;28;20104;-66
2022/01/20 02:45:51;;;;;;;7.95;4.03;;;;;;;;;;5037060;28;19912;-66
2022/01/20 02:48:17;;;;;;;8.88;3.78;;;;;;;;;;5034780;28;20037;-66
2022/01/20 02:50:43;;;;;;;10.73;4.38;;;;;;;;;;5034708;28;20025;-65
2022/01/20 02:53:09;;;;;;;10.52;5.25;;;;;;;;;;5034428;28;20560;-66
2022/01/20 02:55:35;;;;;;;9.32;4.35;;;;;;;;;;5030246;28;20030;-66
2022/01/20 02:58:01;;;;;;;9.60;4.50;;;;;;;;;;5037290;28;20367;-66
2022/01/20 03:00:30;;;;;;;7.78;3.95;;;;;;;;;;5034443;28;20048;-66
2022/01/20 03:02:56;;;;;;;;;;;;;;;;;;5033699;28;20389;-66
2022/01/20 03:05:22;;;;;;;9.32;3.78;;;;;;;;;;5033232;28;19955;-66
2022/01/20 03:07:48;;;;;;;6.90;3.63;;;;;;;;;;5031594;28;20030;-66
2022/01/20 03:10:17;;;;;;;9.30;4.50;;;;;;;;;;5034352;28;20366;-66
2022/01/20 03:12:42;;;;;;;;;;;;;;;;;;5035794;28;20025;-66
2022/01/20 03:15:09;;;;;;;7.28;3.42;;;;;;;;;;5034148;28;20423;-66
2022/01/20 03:17:35;;;;;;;8.00;3.80;;;;;;;;;;5034252;28;20040;-66
2022/01/20 03:20:01;;;;;;;12.15;4.47;;;;;;;;;;5032303;28;20037;-66
2022/01/20 03:22:27;;;;;;;7.72;4.45;;;;;;;;;;5032069;28;20074;-66
2022/01/20 03:24:55;;;;;;;8.52;3.97;;;;;;;;;;5036402;28;20029;-66
2022/01/20 03:27:21;;;;;;;6.53;3.40;;;;;;;;;;5033646;28;20160;-66
2022/01/20 03:29:47;;;;;;;9.00;4.38;;;;;;;;;;5034007;28;20275;-66
2022/01/20 03:32:13;;;;;;;9.85;4.60;;;;;;;;;;5033535;28;20052;-66
2022/01/20 03:34:39;;;;;;;7.60;4.10;;;;;;;;;;5029755;28;20021;-66
2022/01/20 03:37:05;;;;;;;8.75;4.00;;;;;;;;;;5036887;28;20062;-66
2022/01/20 03:39:32;;;;;;;7.40;3.70;;;;;;;;;;5033716;28;20111;-66
2022/01/20 03:41:58;;;;;;;8.80;4.30;;;;;;;;;;5033328;28;20037;-66
2022/01/20 03:44:24;;;;;;;9.00;4.50;;;;;;;;;;5033466;28;20090;-66
2022/01/20 03:46:50;;;;;;;8.38;4.25;;;;;;;;;;5031141;28;20032;-66
2022/01/20 03:51:52;;;;;;;7.85;3.92;;;;;;;;;;5035545;28;20083;-66
2022/01/20 03:54:18;;;;;;;7.63;3.35;;;;;;;;;;5033171;28;20188;-66
2022/01/20 03:56:44;;;;;;;9.32;4.65;;;;;;;;;;5033194;28;20061;-66
2022/01/20 03:59:10;;;;;;;10.32;4.57;;;;;;;;;;5033350;28;20447;-66
2022/01/20 04:01:36;;;;;;;7.57;3.90;;;;;;;;;;5030077;28;20022;-67
2022/01/20 04:04:02;;;;;;;9.15;4.05;;;;;;;;;;5036952;28;20040;-66
2022/01/20 04:06:28;;;;;;;7.55;3.97;;;;;;;;;;5032305;28;20026;-66
2022/01/20 04:08:54;;;;;;;9.10;4.18;;;;;;;;;;5033289;28;20033;-66
2022/01/20 04:11:24;;;;;;;9.73;3.97;;;;;;;;;;5034432;28;20096;-66
2022/01/20 04:13:51;;;;;;;8.00;4.15;;;;;;;;;;5044073;28;20026;-66
2022/01/20 04:16:20;;;;;;;10.65;4.13;;;;;;;;;;5033122;28;20021;-66
2022/01/20 04:18:56;;;;;;;9.30;4.45;;;;;;;;;;5051751;28;20056;-66
2022/01/20 04:21:29;;;;;;;7.53;3.78;;;;;;;;;;5030287;28;20029;-66
2022/01/20 04:23:56;;;;;;;8.00;4.07;;;;;;;;;;5029544;28;20079;-66
2022/01/20 04:26:23;;;;;;;9.43;4.20;;;;;;;;;;5027564;28;20026;-66
2022/01/20 04:28:53;;;;;;;7.13;3.60;;;;;;;;;;5030513;28;20037;-67
2022/01/20 04:31:19;;;;;;;7.72;3.67;;;;;;;;;;5030209;28;20021;-66
2022/01/20 04:33:45;;;;;;;6.68;2.95;;;;;;;;;;5031851;28;20113;-66
2022/01/20 04:38:47;;;;;;;9.00;4.40;;;;;;;;;;5227674;22;20274;-85
2022/01/20 04:41:13;;;;;;;7.93;3.95;;;;;;;;;;5011922;28;20029;-85
2022/01/20 04:43:39;;;;;;;10.25;4.85;;;;;;;;;;4980451;28;20023;-85
2022/01/20 04:46:13;;;;;;;9.00;4.95;;;;;;;;;;4995997;28;20117;-82
2022/01/20 04:59:21;;;;;;;7.10;3.88;;;;;;;;;;5013226;28;20563;-86
2022/01/20 05:01:47;;;;;;;7.20;4.05;;;;;;;;;;4996047;28;20021;-85
2022/01/20 05:04:14;;;;;;;7.97;3.90;;;;;;;;;;4994986;28;20482;-85
2022/01/20 05:06:42;;;;;;;7.45;3.75;;;;;;;;;;4994402;28;20026;-86
2022/01/20 05:09:10;;;;;;;6.32;3.38;;;;;;;;;;4997510;28;20038;-85
2022/01/20 05:11:41;;;;;;;5.93;3.35;;;;;;;;;;5013975;28;20021;-86
2022/01/20 05:14:07;;;;;;;8.68;4.20;;;;;;;;;;4994857;28;20528;-86
2022/01/20 05:16:33;;;;;;;7.15;3.90;;;;;;;;;;4994215;28;20022;-86
2022/01/20 05:18:59;;;;;;;8.32;3.42;;;;;;;;;;4991839;28;20518;-86
2022/01/20 05:21:25;;;;;;;7.55;3.50;;;;;;;;;;5013458;28;20374;-85
2022/01/20 05:23:51;;;;;;;8.90;3.90;;;;;;;;;;4997687;28;20088;-86
2022/01/20 05:26:17;;;;;;;8.15;3.15;;;;;;;;;;4995006;28;20025;-86
2022/01/20 05:28:43;;;;;;;8.70;4.03;;;;;;;;;;4994611;28;20033;-85
2022/01/20 05:31:09;;;;;;;7.18;3.33;;;;;;;;;;4980578;28;20026;-86
2022/01/20 05:33:35;;;;;;;7.43;3.53;;;;;;;;;;5011293;28;20112;-86
2022/01/20 05:36:02;;;;;;;6.43;3.25;;;;;;;;;;4997269;28;20100;-86
2022/01/20 05:38:28;;;;;;;7.68;3.10;;;;;;;;;;4995901;28;20142;-86
2022/01/20 05:40:54;;;;;;;7.70;3.95;;;;;;;;;;5016386;28;20108;-85
2022/01/20 05:43:20;;;;;;;9.55;4.43;;;;;;;;;;5016433;28;20088;-85
2022/01/20 05:45:46;;;;;;;9.73;5.20;;;;;;;;;;5000018;28;20026;-85
2022/01/20 05:48:17;;;;;;;10.48;5.25;;;;;;;;;;4998469;28;20026;-86
2022/01/20 05:50:44;;;;;;;8.55;4.20;;;;;;;;;;4997753;28;20022;-85
2022/01/20 05:53:10;;;;;;;8.45;4.28;;;;;;;;;;5015218;28;20026;-85
2022/01/20 05:55:37;;;;;;;9.55;4.60;;;;;;;;;;4997808;28;20388;-86
2022/01/20 05:58:05;;;;;;;7.32;4.00;;;;;;;;;;4982479;28;20030;-86
2022/01/20 06:00:31;;;;;;;7.03;3.08;;;;;;;;;;4997255;28;20128;-86
2022/01/20 06:05:42;;;;;;;5.25;2.92;;;;;;;;;;5015642;28;20064;-85
2022/01/20 06:08:08;;;;;;;8.10;3.67;;;;;;;;;;4997706;28;20029;-85
2022/01/20 06:10:34;;;;;;;7.45;3.45;;;;;;;;;;5015568;28;20106;-85
2022/01/20 06:13:00;;;;;;;8.30;4.45;;;;;;;;;;4993326;28;20064;-85
2022/01/20 06:15:26;;;;;;;6.60;3.50;;;;;;;;;;5015074;28;20045;-85
2022/01/20 06:17:53;;;;;;;6.95;3.05;;;;;;;;;;4997113;28;20029;-85
2022/01/20 06:20:19;;;;;;;8.27;3.95;;;;;;;;;;4997799;28;20124;-83
2022/01/20 06:22:45;;;;;;;6.13;3.50;;;;;;;;;;5015062;28;20101;-83
2022/01/20 06:25:11;;;;;;;6.72;3.17;;;;;;;;;;5013823;28;20478;-83
2022/01/20 06:27:37;;;;;;;11.70;5.45;;;;;;;;;;5014512;28;20080;-84
2022/01/20 06:30:05;;;;;;;9.05;4.13;;;;;;;;;;5014681;28;20049;-83
2022/01/20 06:32:31;;;;;;;11.48;5.00;;;;;;;;;;4996580;28;20026;-83
2022/01/20 06:34:57;;;;;;;8.82;4.85;;;;;;;;;;5014156;28;20584;-83
2022/01/20 06:37:23;;;;;;;7.60;3.70;;;;;;;;;;4995917;28;20029;-82
2022/01/20 06:39:49;;;;;;;8.55;3.92;;;;;;;;;;5016344;28;20038;-83
2022/01/20 06:42:16;;;;;;;6.75;3.50;;;;;;;;;;4988953;28;20125;-83
2022/01/20 06:44:43;;;;;;;6.93;3.30;;;;;;;;;;4983865;28;20117;-82
2022/01/20 06:47:09;;;;;;;9.45;4.88;;;;;;;;;;5010185;28;20022;-83
2022/01/20 06:49:35;;;;;;;11.32;4.95;;;;;;;;;;4993914;28;20518;-83
2022/01/20 06:52:01;;;;;;;9.32;4.97;;;;;;;;;;5011452;28;20029;-83
2022/01/20 06:54:27;;;;;;;12.40;4.75;;;;;;;;;;5020389;28;20026;-83
2022/01/20 06:56:53;;;;;;;8.13;4.53;;;;;;;;;;5000845;28;20027;-83
2022/01/20 06:59:20;;;;;;;7.63;3.95;;;;;;;;;;5010567;28;20037;-84
2022/01/20 07:01:48;;;;;;;9.65;5.47;;;;;;;;;;5006453;28;20038;-86
2022/01/20 07:04:14;;;;;;;8.68;4.38;;;;;;;;;;5008031;28;20090;-85
2022/01/20 07:06:41;;;;;;;15.20;7.25;;;;;;;;;;5020582;28;20041;-84
2022/01/20 07:09:11;;;;;;;15.35;6.53;;;;;;;;;;5003828;28;20037;-84
2022/01/20 07:11:38;;;;;;;11.85;5.65;;;;;;;;;;5021449;28;20022;-86
2022/01/20 07:14:04;;;;;;;11.25;5.47;;;;;;;;;;5004227;28;20031;-83
2022/01/20 07:16:30;;;;;;;10.65;5.70;;;;;;;;;;5002518;28;20034;-84
2022/01/20 07:18:56;;;;;;;11.35;5.68;;;;;;;;;;5002334;28;20037;-84
2022/01/20 07:21:22;;;;;;;8.52;3.40;;;;;;;;;;4999982;28;20032;-84
2022/01/20 07:23:49;;;;;;;11.50;5.45;;;;;;;;;;5021487;28;20025;-84
2022/01/20 07:26:15;;;;;;;12.60;6.85;;;;;;;;;;5004982;28;20018;-84
2022/01/20 07:28:41;;;;;;;14.15;6.13;;;;;;;;;;5004096;28;20076;-84
2022/01/20 07:31:07;;;;;;;12.88;6.35;;;;;;;;;;5006711;28;20466;-84
2022/01/20 07:33:33;;;;;;;10.50;6.05;;;;;;;;;;5004362;28;20060;-85
2022/01/20 07:36:00;;;;;;;9.20;4.68;;;;;;;;;;5018266;28;20061;-84
2022/01/20 07:38:26;;;;;;;10.32;5.13;;;;;;;;;;5023662;28;20054;-84
2022/01/20 07:40:52;;;;;;;9.32;5.22;;;;;;;;;;5008913;28;20385;-83
2022/01/20 07:43:18;;;;;;;10.98;6.22;;;;;;;;;;4995072;28;20026;-83
2022/01/20 07:45:44;;;;;;;15.05;7.70;;;;;;;;;;5013182;28;20095;-83
2022/01/20 07:48:10;;;;;;;15.43;7.68;;;;;;;;;;5002231;28;20540;-85
2022/01/20 07:50:37;;;;;;;15.43;7.38;;;;;;;;;;4995475;28;20026;-84
2022/01/20 07:53:03;;;;;;;12.07;6.28;;;;;;;;;;4996795;28;20116;-85
2022/01/20 07:55:29;;;;;;;17.63;8.95;;;;;;;;;;5007316;28;20022;-85
2022/01/20 07:57:55;;;;;;;15.35;8.75;;;;;;;;;;4999098;28;20034;-85
2022/01/20 08:00:21;;;;;;;12.95;7.15;;;;;;;;;;4992089;28;20096;-84
2022/01/20 08:02:48;;;;;;;11.65;5.43;;;;;;;;;;5011510;28;20037;-85
2022/01/20 08:05:14;;;;;;;16.25;8.30;;;;;;;;;;4994766;28;20435;-85
2022/01/20 08:07:40;;;;;;;14.63;6.97;;;;;;;;;;4994185;28;20718;-85
2022/01/20 08:10:07;;;;;;;16.45;6.63;;;;;;;;;;4979564;28;20026;-85
2022/01/20 08:12:33;;;;;;;9.50;4.70;;;;;;;;;;4992701;28;20551;-84
2022/01/20 08:14:59;;;;;;;16.88;4.82;;;;;;;;;;4994097;28;20049;-85
2022/01/20 08:17:26;;;;;;;11.75;4.28;;;;;;;;;;4994862;28;20161;-85
2022/01/20 08:19:52;;;;;;;5.63;2.90;;;;;;;;;;5013486;28;20049;-85
2022/01/20 08:22:18;;;;;;;6.45;3.33;;;;;;;;;;4993660;28;20571;-85
2022/01/20 08:24:49;;;;;;;8.70;4.05;;;;;;;;;;5012484;28;20117;-84
2022/01/20 08:27:17;;;;;;;7.55;3.50;;;;;;;;;;4996192;28;20446;-85
2022/01/20 08:29:43;;;;;;;6.88;3.40;;;;;;;;;;5011270;28;20087;-86
2022/01/20 08:32:09;;;;;;;11.02;6.28;;;;;;;;;;4995562;28;20100;-85
2022/01/20 08:34:35;;;;;;;13.82;6.90;;;;;;;;;;4993881;28;20030;-85
2022/01/20 08:37:01;;;;;;;9.57;5.45;;;;;;;;;;5012753;28;20476;-85
2022/01/20 08:41:59;;;;;;;9.40;4.60;;;;;;;;;;5013233;28;20056;-85
2022/01/20 08:44:25;;;;;;;6.78;3.60;;;;;;;;;;4993500;28;20029;-85
2022/01/20 08:46:52;;;;;;;7.55;3.55;;;;;;;;;;4978701;28;20028;-85
2022/01/20 08:49:19;;;;;;;9.77;5.40;;;;;;;;;;4992489;28;20018;-85
2022/01/20 08:51:45;;;;;;;9.02;5.00;;;;;;;;;;4993436;28;20041;-85
2022/01/20 08:54:13;;;;;;;9.48;5.20;;;;;;;;;;5011317;28;20034;-85
2022/01/20 08:56:39;;;;;;;9.40;4.82;;;;;;;;;;5012960;28;20049;-84
2022/01/20 08:59:06;;;;;;;7.78;4.32;;;;;;;;;;5011267;28;20108;-85
2022/01/20 09:01:33;;;;;;;12.02;4.63;;;;;;;;;;5010383;28;20026;-85
2022/01/20 09:03:59;;;;;;;8.30;4.80;;;;;;;;;;5011291;28;20030;-85
2022/01/20 09:06:25;;;;;;;8.98;4.13;;;;;;;;;;4996199;28;20034;-85
2022/01/20 09:08:51;;;;;;;7.88;4.65;;;;;;;;;;4993190;28;20073;-85
2022/01/20 09:11:22;;;;;;;7.68;4.00;;;;;;;;;;4995223;28;20033;-85
2022/01/20 09:16:35;;;;;;;7.55;4.25;;;;;;;;;;5012721;28;20109;-85
2022/01/20 09:19:00;;;;;;;9.93;4.28;;;;;;;;;;4999154;28;20034;-85
2022/01/20 09:21:28;;;;;;;6.68;3.75;;;;;;;;;;5015213;28;20032;-85
2022/01/20 09:23:54;;;;;;;7.82;4.07;;;;;;;;;;4997291;28;20412;-85
2022/01/20 09:26:21;;;;;;;8.20;4.18;;;;;;;;;;4997073;28;20042;-85
2022/01/20 09:28:47;;;;;;;5.80;3.55;;;;;;;;;;4997227;28;20041;-85
2022/01/20 09:31:13;;;;;;;6.50;3.33;;;;;;;;;;4996550;28;20132;-85
2022/01/20 09:33:39;;;;;;;6.20;3.60;;;;;;;;;;5014863;28;20441;-85
2022/01/20 09:36:10;;;;;;;8.02;3.60;;;;;;;;;;5014777;28;20034;-85
2022/01/20 09:38:37;;;;;;;7.75;3.40;;;;;;;;;;4994805;28;20104;-86
2022/01/20 09:41:04;;;;;;;5.57;2.92;;;;;;;;;;4995172;28;20062;-85
2022/01/20 09:43:30;;;;;;;5.38;3.08;;;;;;;;;;4992104;28;20042;-85
2022/01/20 09:45:56;;;;;;;6.22;2.40;;;;;;;;;;4995394;28;20391;-85
2022/01/20 09:48:23;;;;;;;7.50;3.70;;;;;;;;;;4994897;28;20031;-85
2022/01/20 09:50:50;;;;;;;8.27;3.78;;;;;;;;;;4994612;28;20030;-86
2022/01/20 09:53:16;;;;;;;7.20;3.55;;;;;;;;;;4994984;28;20038;-86
2022/01/20 09:55:42;;;;;;;6.05;3.83;;;;;;;;;;4994273;28;20034;-85
2022/01/20 09:58:09;;;;;;;6.55;3.25;;;;;;;;;;4992554;28;20026;-86
2022/01/20 10:00:36;;;;;;;7.00;3.22;;;;;;;;;;4993368;28;20561;-86
2022/01/20 10:03:08;;;;;;;7.18;3.10;;;;;;;;;;4993494;28;20053;-86
2022/01/20 10:05:39;;;;;;;5.72;2.90;;;;;;;;;;4993860;28;20034;-85
2022/01/20 10:08:07;;;;;;;5.82;2.90;;;;;;;;;;4994671;28;20422;-87
2022/01/20 10:10:40;;;;;;;4.88;2.47;;;;;;;;;;4994239;28;20573;-85
2022/01/20 10:13:07;;;;;;;4.40;2.38;;;;;;;;;;4991601;28;20030;-85
2022/01/20 10:15:33;;;;;;;6.30;2.80;;;;;;;;;;4992902;28;20031;-86
2022/01/20 10:18:05;;;;;;;4.70;2.60;;;;;;;;;;4994443;28;20038;-85
2022/01/20 10:20:31;;;;;;;4.88;2.50;;;;;;;;;;4993468;28;20058;-85
2022/01/20 10:22:57;;;;;;;8.55;2.78;;;;;;;;;;4994618;28;20037;-86
2022/01/20 10:25:24;;;;;;;4.80;2.45;;;;;;;;;;4992654;28;20402;-86
2022/01/20 10:27:55;;;;;;;4.17;2.10;;;;;;;;;;4993791;28;20042;-86
2022/01/20 10:30:24;;;;;;;4.15;2.30;;;;;;;;;;4994601;28;20037;-86
2022/01/20 10:32:51;;;;;;;4.13;1.90;;;;;;;;;;4993016;28;20018;-85
2022/01/20 10:35:18;;;;;;;5.63;2.38;;;;;;;;;;4994826;28;20132;-86
2022/01/20 10:38:10;;;;;;;6.13;2.60;;;;;;;;;;4996855;28;20073;-86
2022/01/20 10:40:46;;;;;;;4.25;2.10;;;;;;;;;;5010710;28;20029;-86
2022/01/20 10:43:19;;;;;;;3.83;2.10;;;;;;;;;;5010292;28;20050;-85
2022/01/20 10:45:45;;;;;;;3.67;1.90;;;;;;;;;;5013505;28;20041;-85
2022/01/20 10:48:17;;;;;;;3.35;2.10;;;;;;;;;;5013633;28;20030;-86
2022/01/20 10:50:43;;;;;;;3.33;1.95;;;;;;;;;;4980623;28;20026;-86
2022/01/20 10:53:19;;;;;;;3.17;1.90;;;;;;;;;;4982196;28;20024;-85
2022/01/20 10:55:46;;;;;;;4.15;2.40;;;;;;;;;;5013133;28;20034;-83
2022/01/20 10:58:15;;;;;;;5.63;2.50;;;;;;;;;;5013058;28;20030;-83
2022/01/20 11:00:46;;;;;;;3.90;2.05;;;;;;;;;;5013049;28;20026;-83
2022/01/20 11:03:12;;;;;;;4.40;2.15;;;;;;;;;;4995409;28;20036;-83
2022/01/20 11:05:39;;;;;;;4.78;2.28;;;;;;;;;;5012938;28;20022;-83
2022/01/20 11:08:06;;;;;;;4.70;2.25;;;;;;;;;;5013864;28;20072;-83
2022/01/20 11:10:32;;;;;;;4.72;2.42;;;;;;;;;;4994605;28;20039;-84
2022/01/20 11:12:58;;;;;;;5.25;2.20;;;;;;;;;;4992173;28;20072;-83
2022/01/20 11:15:25;;;;;;;3.95;1.95;;;;;;;;;;4994895;28;20034;-84
2022/01/20 11:17:55;;;;;;;4.97;2.30;;;;;;;;;;5012891;28;20026;-83
2022/01/20 11:20:22;;;;;;;3.65;2.13;;;;;;;;;;5009765;28;20038;-82
2022/01/20 11:22:52;;;;;;;4.63;2.50;;;;;;;;;;5006322;28;20474;-83
2022/01/20 11:25:20;;;;;;;5.97;1.90;;;;;;;;;;4983503;28;20030;-84
2022/01/20 11:27:46;;;;;;;3.43;1.80;;;;;;;;;;5006069;28;20026;-84
2022/01/20 11:30:12;;;;;;;4.88;2.03;;;;;;;;;;5005827;28;20604;-84
2022/01/20 11:32:39;;;;;;;5.72;3.15;;;;;;;;;;5006229;28;20076;-83
2022/01/20 11:35:07;;;;;;;6.07;3.03;;;;;;;;;;5006238;28;20087;-83
2022/01/20 11:37:36;;;;;;;3.67;2.08;;;;;;;;;;4983379;28;20406;-84
2022/01/20 11:40:13;;;;;;;2.70;1.83;;;;;;;;;;5003304;28;20088;-84
2022/01/20 11:42:39;;;;;;;3.67;1.75;;;;;;;;;;4988610;28;20234;-83
2022/01/20 11:45:21;;;;;;;3.47;1.90;;;;;;;;;;5004840;28;20072;-84
2022/01/20 11:47:47;;;;;;;3.03;1.60;;;;;;;;;;4989232;28;20032;-83
2022/01/20 11:50:17;;;;;;;1.90;1.50;;;;;;;;;;5007454;28;20109;-83
2022/01/20 11:52:43;;;;;;;2.70;1.42;;;;;;;;;;5000569;28;20034;-83
2022/01/20 11:55:13;;;;;;;3.42;1.60;;;;;;;;;;5001015;28;20045;-83
2022/01/20 11:57:39;;;;;;;3.17;1.58;;;;;;;;;;4987758;28;20056;-83
2022/01/20 12:00:18;;;;;;;3.10;1.55;;;;;;;;;;5002467;28;20509;-83
2022/01/20 12:02:44;;;;;;;1.00;0.80;;;;;;;;;;4983153;28;20372;-83
2022/01/20 12:05:30;;;;;;;1.58;0.88;;;;;;;;;;4990957;28;20029;-84
2022/01/20 12:08:07;;;;;;;0.70;0.40;;;;;;;;;;5001507;28;20022;-84
2022/01/20 12:10:33;;;;;;;0.52;0.17;;;;;;;;;;5003314;28;20030;-83
2022/01/20 12:13:09;;;;;;;0.10;0.10;;;;;;;;;;5001880;28;20026;-83
2022/01/20 12:15:35;;;;;;;0.28;0.17;;;;;;;;;;5002393;28;20026;-84
2022/01/20 12:18:01;;;;;;;0.00;0.00;;;;;;;;;;5002767;28;20041;-83
2022/01/20 12:20:27;;;;;;;0.08;0.08;;;;;;;;;;4983613;28;20113;-83
2022/01/20 12:22:54;;;;;;;0.10;0.00;;;;;;;;;;5000414;28;20057;-83
2022/01/20 12:25:26;;;;;;;0.10;0.10;;;;;;;;;;5000656;28;20026;-83
2022/01/20 12:27:52;;;;;;;0.40;0.00;;;;;;;;;;5005153;28;20026;-83
2022/01/20 12:30:25;;;;;;;0.55;0.20;;;;;;;;;;4984418;28;20490;-83
2022/01/20 12:32:55;;;;;;;0.10;0.00;;;;;;;;;;4982675;28;20033;-83
2022/01/20 12:35:21;;;;;;;0.00;0.00;;;;;;;;;;4995832;28;20145;-83
2022/01/20 12:37:47;;;;;;;0.00;0.00;;;;;;;;;;5007560;28;20042;-83
2022/01/20 12:40:23;;;;;;;0.10;0.10;;;;;;;;;;5010246;28;20482;-82
2022/01/20 12:42:49;;;;;;;0.40;0.10;;;;;;;;;;5009046;28;20033;-83
2022/01/20 12:48:10;;;;;;;0.10;0.10;;;;;;;;;;5007052;28;20048;-83
2022/01/20 12:50:36;;;;;;;0.10;0.10;;;;;;;;;;4990640;28;20017;-83
2022/01/20 12:53:02;;;;;;;0.30;0.10;;;;;;;;;;5007344;28;20026;-83
2022/01/20 12:55:28;;;;;;;0.10;0.10;;;;;;;;;;5009773;28;20026;-83
2022/01/20 12:57:59;;;;;;;0.13;0.10;;;;;;;;;;5007948;28;20034;-84
2022/01/20 13:00:25;;;;;;;0.50;0.30;;;;;;;;;;5007693;28;20029;-82
2022/01/20 13:02:51;;;;;;;0.10;0.10;;;;;;;;;;5007501;28;20030;-83
2022/01/20 13:05:19;;;;;;;0.20;0.10;;;;;;;;;;5007082;28;20054;-83
2022/01/20 13:07:51;;;;;;;0.88;0.47;;;;;;;;;;4990576;28;20042;-83
2022/01/20 13:10:22;;;;;;;0.50;0.20;;;;;;;;;;5010932;28;20034;-84
2022/01/20 13:12:51;;;;;;;0.20;0.10;;;;;;;;;;4994251;28;20580;-84
2022/01/20 13:15:17;;;;;;;0.20;0.20;;;;;;;;;;5011039;28;20076;-83
2022/01/20 13:17:43;;;;;;;0.10;0.10;;;;;;;;;;4995238;28;20029;-83
2022/01/20 13:20:19;;;;;;;0.20;0.08;;;;;;;;;;5012987;28;20085;-84
2022/01/20 13:22:56;;;;;;;0.10;0.10;;;;;;;;;;4994156;28;20021;-84
2022/01/20 13:25:26;;;;;;;0.13;0.13;;;;;;;;;;5007356;28;20171;-82
2022/01/20 13:28:00;;;;;;;0.20;0.15;;;;;;;;;;5011727;28;20091;-83
2022/01/20 13:30:36;;;;;;;0.20;0.10;;;;;;;;;;4995881;28;20030;-86
2022/01/20 13:33:03;;;;;;;0.60;0.20;;;;;;;;;;4994050;28;20038;-85
2022/01/20 13:35:38;;;;;;;0.10;0.10;;;;;;;;;;4993411;28;20014;-84
2022/01/20 13:38:05;;;;;;;0.30;0.10;;;;;;;;;;4993107;28;20040;-84
2022/01/20 13:40:32;;;;;;;0.43;0.20;;;;;;;;;;5010500;28;20022;-84
2022/01/20 13:45:40;;;;;;;0.20;0.20;;;;;;;;;;5012953;28;20072;-85
2022/01/20 13:48:06;;;;;;;0.08;0.08;;;;;;;;;;5012353;28;20026;-84
2022/01/20 13:50:35;;;;;;;0.10;0.10;;;;;;;;;;4992838;28;20408;-84
2022/01/20 13:53:02;;;;;;;0.10;0.10;;;;;;;;;;5011010;28;20025;-85
2022/01/20 13:55:33;;;;;;;0.40;0.17;;;;;;;;;;5010436;28;20104;-85
2022/01/20 13:58:00;;;;;;;0.88;0.30;;;;;;;;;;4993890;28;20321;-84
2022/01/20 14:00:28;;;;;;;0.75;0.20;;;;;;;;;;4994599;28;20046;-85
2022/01/20 14:02:54;;;;;;;0.50;0.30;;;;;;;;;;5014406;28;20026;-85
2022/01/20 14:05:22;;;;;;;0.75;0.60;;;;;;;;;;5014002;28;20030;-84
2022/01/20 14:07:48;;;;;;;1.23;0.70;;;;;;;;;;5014059;28;20018;-85
2022/01/20 14:10:14;;;;;;;0.25;0.10;;;;;;;;;;4996243;28;20254;-84
2022/01/20 14:12:40;;;;;;;0.10;0.10;;;;;;;;;;5014317;28;20092;-83
2022/01/20 14:15:07;;;;;;;0.25;0.20;;;;;;;;;;5014203;28;20030;-85
2022/01/20 14:17:37;;;;;;;0.30;0.30;;;;;;;;;;5014166;28;20478;-85
2022/01/20 14:20:10;;;;;;;0.50;0.40;;;;;;;;;;5013943;28;20048;-84
2022/01/20 14:22:36;;;;;;;2.13;0.75;;;;;;;;;;5014049;28;20021;-85
2022/01/20 14:25:03;;;;;;;0.95;0.52;;;;;;;;;;5013700;28;20025;-84
2022/01/20 14:27:29;;;;;;;0.40;0.30;;;;;;;;;;5015418;28;20057;-84
2022/01/20 14:29:55;;;;;;;0.75;0.50;;;;;;;;;;5014002;28;20073;-84
2022/01/20 14:32:21;;;;;;;0.47;0.40;;;;;;;;;;5013999;28;20025;-85
2022/01/20 14:34:47;;;;;;;0.32;0.32;;;;;;;;;;4996354;28;20030;-84
2022/01/20 14:37:13;;;;;;;1.85;0.65;;;;;;;;;;4995185;28;20022;-84
2022/01/20 14:39:39;;;;;;;0.47;0.40;;;;;;;;;;5013906;28;20057;-84
2022/01/20 14:42:06;;;;;;;0.57;0.38;;;;;;;;;;5013832;28;20030;-84
2022/01/20 14:44:34;;;;;;;0.35;0.30;;;;;;;;;;4996089;28;20029;-86
2022/01/20 14:47:01;;;;;;;0.95;0.63;;;;;;;;;;5013277;28;20025;-83
2022/01/20 14:49:27;;;;;;;13.50;5.32;;;;;;;;;;4995328;28;20120;-85
2022/01/20 14:51:53;;;;;;;9.27;3.78;;;;;;;;;;4994037;28;20029;-86
2022/01/20 14:54:19;;;;;;;9.45;3.75;;;;;;;;;;5014072;28;20120;-85
2022/01/20 14:56:45;;;;;;;0.70;0.22;;;;;;;;;;5015121;28;20018;-84
2022/01/20 14:59:11;;;;;;;0.88;0.20;;;;;;;;;;5017156;28;20503;-84
2022/01/20 15:01:37;;;;;;;3.00;0.63;;;;;;;;;;4997823;28;20030;-85
2022/01/20 15:04:04;;;;;;;1.60;0.90;;;;;;;;;;5012689;28;20024;-85
2022/01/20 15:06:30;;;;;;;1.02;0.77;;;;;;;;;;4997150;28;20061;-84
2022/01/20 15:08:56;;;;;;;0.88;0.50;;;;;;;;;;5013466;28;20053;-85
2022/01/20 15:11:22;;;;;;;0.20;0.20;;;;;;;;;;5012649;28;20092;-85
2022/01/20 15:13:48;;;;;;;1.02;0.52;;;;;;;;;;5013578;28;20048;-85
2022/01/20 15:16:14;;;;;;;0.80;0.40;;;;;;;;;;5012628;28;20426;-85
2022/01/20 15:18:40;;;;;;;2.30;0.17;;;;;;;;;;4995116;28;20301;-85
2022/01/20 15:21:07;;;;;;;1.55;0.80;;;;;;;;;;5014614;28;20030;-85
2022/01/20 15:23:33;;;;;;;2.00;0.90;;;;;;;;;;5013386;28;20084;-85
2022/01/20 15:25:59;;;;;;;0.73;0.60;;;;;;;;;;5014219;28;20033;-86
2022/01/20 15:28:29;;;;;;;0.60;0.47;;;;;;;;;;4994656;28;20030;-85
2022/01/20 15:30:56;;;;;;;0.95;0.60;;;;;;;;;;5009299;28;20340;-85
2022/01/20 15:33:22;;;;;;;0.70;0.50;;;;;;;;;;4996470;28;20033;-87
2022/01/20 15:35:48;;;;;;;0.35;0.20;;;;;;;;;;5001186;28;20501;-88
2022/01/20 15:38:13;;;;;;;1.45;0.40;;;;;;;;;;4992671;28;20049;-87
2022/01/20 15:40:40;;;;;;;0.95;0.43;;;;;;;;;;4995976;28;20089;-87
2022/01/20 15:43:06;;;;;;;0.10;0.10;;;;;;;;;;5004824;28;20145;-88
2022/01/20 15:45:32;;;;;;;1.95;0.30;;;;;;;;;;5010004;28;20073;-87
2022/01/20 15:47:58;;;;;;;0.30;0.20;;;;;;;;;;5012032;28;20040;-86
2022/01/20 15:50:24;;;;;;;1.08;0.80;;;;;;;;;;5022453;28;20029;-87
2022/01/20 15:52:50;;;;;;;3.00;1.17;;;;;;;;;;5007706;28;20060;-87
2022/01/20 15:55:16;;;;;;;2.45;1.40;;;;;;;;;;5011735;28;20065;-84
2022/01/20 15:57:43;;;;;;;0.70;0.50;;;;;;;;;;5021778;28;20100;-88
2022/01/20 16:00:11;;;;;;;0.57;0.40;;;;;;;;;;5001312;28;20048;-86
2022/01/20 16:02:37;;;;;;;2.45;1.17;;;;;;;;;;5008249;28;20026;-86
2022/01/20 16:05:03;;;;;;;1.38;0.52;;;;;;;;;;5006918;28;20037;-87